createdAt,value
2023-03-02T00:04:03.174Z,25.6
2023-03-02T00:09:55.171Z,26.7
2023-03-02T00:15:48.284Z,27.2
2023-03-02T00:21:40.389Z,26.9
2023-03-02T00:27:32.968Z,26.6
2023-03-02T00:33:25.744Z,26.3
2023-03-02T00:39:18.431Z,25.9
2023-03-02T00:45:10.815Z,25.6
2023-03-02T00:50:48.938Z,27.1
2023-03-02T00:56:42.282Z,27.1
2023-03-02T01:02:35.236Z,26.8
2023-03-02T01:08:29.230Z,26.5
2023-03-02T01:14:22.574Z,26.2
2023-03-02T01:20:15.600Z,25.3
2023-03-02T01:25:53.627Z,26.9
2023-03-02T01:31:31.229Z,27.1
2023-03-02T01:37:24.158Z,26.8
2023-03-02T01:43:17.831Z,26.6
2023-03-02T01:48:55.241Z,26.3
2023-03-02T01:54:32.573Z,25.3
2023-03-02T02:00:26.217Z,26.7
2023-03-02T02:06:19.893Z,27.1
2023-03-02T02:12:12.913Z,25.9
2023-03-02T02:18:05.909Z,25.4
2023-03-02T02:23:43.627Z,25.1
2023-03-02T02:29:37.019Z,24.8
2023-03-02T02:35:30.280Z,24.9
2023-03-02T02:41:24.104Z,26
2023-03-02T02:46:45.411Z,27
2023-03-02T02:52:37.856Z,26.4
2023-03-02T02:58:15.514Z,25.5
2023-03-02T03:03:52.603Z,25
2023-03-02T03:09:30.163Z,24.6
2023-03-02T03:15:08.030Z,24.4
2023-03-02T03:21:00.818Z,24.1
2023-03-02T03:26:53.642Z,24.1
2023-03-02T03:32:47.408Z,23.8
2023-03-02T03:38:40.155Z,24.6
2023-03-02T03:44:33.522Z,26.3
2023-03-02T03:50:27.458Z,26.9
2023-03-02T03:56:21.822Z,25.8
2023-03-02T04:01:59.975Z,25.2
2023-03-02T04:07:38.459Z,24.6
2023-03-02T04:13:14.961Z,24.3
2023-03-02T04:18:36.845Z,24.1
2023-03-02T04:24:14.380Z,23.8
2023-03-02T04:29:52.248Z,24.5
2023-03-02T04:35:45.777Z,26.2
2023-03-02T04:41:37.999Z,26.8
2023-03-02T04:47:33.798Z,25.7
2023-03-02T04:53:26.788Z,25.1
2023-03-02T04:59:19.082Z,24.5
2023-03-02T05:05:13.735Z,24.2
2023-03-02T05:11:06.492Z,24
2023-03-02T05:16:59.173Z,23.7
2023-03-02T05:22:51.517Z,24.4
2023-03-02T05:28:44.873Z,26.3
2023-03-02T05:34:37.840Z,26.9
2023-03-02T05:40:31.454Z,25.7
2023-03-02T05:46:24.926Z,25.1
2023-03-02T05:52:18.465Z,24.4
2023-03-02T05:57:56.210Z,24.2
2023-03-02T06:03:33.740Z,24
2023-03-02T06:09:10.876Z,23.7
2023-03-02T06:14:47.790Z,24.2
2023-03-02T06:20:25.186Z,25.4
2023-03-02T06:26:03.201Z,26.7
2023-03-02T06:31:54.622Z,26.8
2023-03-02T06:37:33.047Z,25.3
2023-03-02T06:43:10.708Z,24.9
2023-03-02T06:48:48.229Z,24.6
2023-03-02T06:54:25.718Z,24.4
2023-03-02T07:00:03.278Z,24.4
2023-03-02T07:05:42.435Z,26.3
2023-03-02T07:11:21.604Z,26.8
2023-03-02T07:17:01.357Z,26.6
2023-03-02T07:22:38.885Z,26.4
2023-03-02T07:28:15.932Z,25.6
2023-03-02T07:33:53.904Z,25.1
2023-03-02T07:39:46.806Z,26.8
2023-03-02T07:45:40.005Z,26.9
2023-03-02T07:51:33.484Z,26.6
2023-03-02T07:57:09.977Z,26.4
2023-03-02T08:03:03.644Z,24.9
2023-03-02T08:08:56.203Z,25.9
2023-03-02T08:14:48.842Z,26.3
2023-03-02T08:20:41.255Z,26
2023-03-02T08:26:34.598Z,25.8
2023-03-02T08:32:11.693Z,25.6
2023-03-02T08:38:05.689Z,25.3
2023-03-02T08:43:59.375Z,24.8
2023-03-02T08:49:52.810Z,24.6
2023-03-02T08:55:46.402Z,26.1
2023-03-02T09:01:39.796Z,26.1
2023-03-02T09:07:32.906Z,25.9
2023-03-02T09:13:25.472Z,25.6
2023-03-02T09:19:18.394Z,25.4
2023-03-02T09:25:10.885Z,25.1
2023-03-02T09:31:03.357Z,24.3
2023-03-02T09:36:57.589Z,25.6
2023-03-02T09:43:00.424Z,26.1
2023-03-02T09:48:59.023Z,25.9
2023-03-02T09:54:53.880Z,25.8
2023-03-02T10:00:53.112Z,25.6
2023-03-02T10:06:39.216Z,25.3
2023-03-02T10:12:32.190Z,24.4
2023-03-02T10:18:28.448Z,24.8
2023-03-02T10:24:28.062Z,26
2023-03-02T10:30:21.764Z,25.9
2023-03-02T10:35:58.808Z,25.8
2023-03-02T10:41:52.452Z,25.6
2023-03-02T10:47:46.080Z,25.4
2023-03-02T10:53:54.673Z,25.1
2023-03-02T10:59:47.958Z,24.1
2023-03-02T11:05:41.405Z,25.9
2023-03-02T11:11:35.332Z,26
2023-03-02T11:17:29.644Z,25.9
2023-03-02T11:23:06.936Z,25.7
2023-03-02T11:28:44.123Z,25.4
2023-03-02T11:34:49.727Z,25.2
2023-03-02T11:40:47.326Z,24.1
2023-03-02T11:46:38.036Z,25.6
2023-03-02T11:52:49.925Z,26.1
2023-03-02T11:58:45.486Z,25.9
2023-03-02T12:04:08.090Z,25.7
2023-03-02T12:10:02.605Z,25.6
2023-03-02T12:15:55.592Z,25.3
2023-03-02T12:21:49.444Z,24.3
2023-03-02T12:27:42.259Z,24.8
2023-03-02T12:33:35.219Z,25.9
2023-03-02T12:39:28.665Z,25.9
2023-03-02T12:45:22.652Z,25.8
2023-03-02T12:51:20.191Z,25.6
2023-03-02T12:57:12.846Z,25.3
2023-03-02T13:03:06.714Z,24.9
2023-03-02T13:08:59.736Z,24.1
2023-03-02T13:14:56.463Z,25.9
2023-03-02T13:20:49.989Z,26
2023-03-02T13:26:42.776Z,25.8
2023-03-02T13:32:36.749Z,25.6
2023-03-02T13:38:30.259Z,25.4
2023-03-02T13:44:22.801Z,25.1
2023-03-02T13:50:31.846Z,23.9
2023-03-02T13:56:24.986Z,25.6
2023-03-02T14:02:18.533Z,26.1
2023-03-02T14:08:12.591Z,25.9
2023-03-02T14:13:50.738Z,25.7
2023-03-02T14:19:43.221Z,25.5
2023-03-02T14:25:37.212Z,25.3
2023-03-02T14:31:36.048Z,24.3
2023-03-02T14:37:28.938Z,24.9
2023-03-02T14:43:32.853Z,25.9
2023-03-02T14:49:25.782Z,25.9
2023-03-02T14:55:18.472Z,25.7
2023-03-02T15:01:13.101Z,24.5
2023-03-02T15:07:40.137Z,24
2023-03-02T15:13:17.048Z,23.8
2023-03-02T15:19:09.394Z,23.6
2023-03-02T15:25:05.768Z,23.6
2023-03-02T15:30:59.252Z,25.4
2023-03-02T15:36:52.014Z,25.9
2023-03-02T15:42:46.625Z,25.7
2023-03-02T15:48:40.060Z,25.5
2023-03-02T15:54:33.292Z,25.3
2023-03-02T16:00:21.837Z,24.9
2023-03-02T16:06:15.665Z,24.7
2023-03-02T16:12:09.290Z,23.6
2023-03-02T16:18:02.448Z,25.1
2023-03-02T16:23:55.448Z,25.9
2023-03-02T16:29:49.042Z,25.8
2023-03-02T16:35:42.450Z,25.6
2023-03-02T16:41:36.050Z,25.3
2023-03-02T16:47:14.302Z,25.1
2023-03-02T16:53:07.887Z,24.7
2023-03-02T16:59:01.339Z,23.5
2023-03-02T17:04:55.388Z,25.1
2023-03-02T17:10:53.505Z,25.7
2023-03-02T17:16:46.402Z,25.6
2023-03-02T17:22:38.974Z,24.1
2023-03-02T17:28:47.380Z,23.9
2023-03-02T17:34:40.560Z,23.6
2023-03-02T17:40:32.580Z,23.5
2023-03-02T17:46:29.617Z,25.3
2023-03-02T17:52:22.787Z,25.8
2023-03-02T17:58:15.064Z,24.6
2023-03-02T18:04:16.693Z,24.1
2023-03-02T18:10:13.006Z,23.4
2023-03-02T18:16:05.897Z,23.3
2023-03-02T18:21:44.000Z,22.9
2023-03-02T18:27:37.862Z,22.9
2023-03-02T18:33:31.437Z,23.8
2023-03-02T18:39:08.769Z,25.6
2023-03-02T18:45:01.656Z,25.7
2023-03-02T18:50:54.405Z,24.3
2023-03-02T18:56:47.966Z,23.9
2023-03-02T19:02:41.656Z,23.3
2023-03-02T19:08:33.316Z,23.1
2023-03-02T19:14:13.941Z,22.9
2023-03-02T19:20:09.152Z,23.3
2023-03-02T19:26:01.653Z,24.3
2023-03-02T19:31:55.173Z,25.6
2023-03-02T19:37:33.185Z,25.6
2023-03-02T19:43:25.847Z,24.2
2023-03-02T19:49:21.038Z,23.8
2023-03-02T19:55:14.330Z,23.3
2023-03-02T20:01:07.896Z,23.1
2023-03-02T20:06:47.515Z,22.8
2023-03-02T20:12:41.141Z,23.2
2023-03-02T20:18:42.985Z,24.6
2023-03-02T20:24:37.900Z,25.6
2023-03-02T20:30:30.750Z,25.5
2023-03-02T20:36:23.780Z,24.1
2023-03-02T20:42:21.240Z,23.6
2023-03-02T20:48:14.931Z,23.2
2023-03-02T20:54:07.843Z,23
2023-03-02T20:59:46.352Z,22.7
2023-03-02T21:05:38.910Z,23.2
2023-03-02T21:11:34.595Z,24.8
2023-03-02T21:17:30.516Z,25.6
2023-03-02T21:23:20.896Z,24.9
2023-03-02T21:29:16.785Z,24
2023-03-02T21:35:11.519Z,23.4
2023-03-02T21:41:05.679Z,23.1
2023-03-02T21:46:59.440Z,22.9
2023-03-02T21:52:39.127Z,23.3
2023-03-02T21:58:32.734Z,25.1
2023-03-02T22:04:25.671Z,26.2
2023-03-02T22:10:18.771Z,26.4
2023-03-02T22:16:12.494Z,24.9
2023-03-02T22:22:06.386Z,25.9
2023-03-02T22:27:59.829Z,26.6
2023-03-02T22:33:52.309Z,25.9
2023-03-02T22:39:45.595Z,24.7
2023-03-02T22:45:39.069Z,24.1
2023-03-02T22:51:32.699Z,23.6
2023-03-02T22:57:26.728Z,23.8
2023-03-02T23:03:20.473Z,25.4
2023-03-02T23:09:13.713Z,26.4
2023-03-02T23:15:07.664Z,26.6
2023-03-02T23:21:01.280Z,24.9
2023-03-02T23:26:53.557Z,24.5
2023-03-02T23:32:46.146Z,23.8
2023-03-02T23:38:39.382Z,23.6
2023-03-02T23:44:31.708Z,24.5
2023-03-02T23:50:23.761Z,26.2
2023-03-02T23:56:17.917Z,26.6
